createdAt,value
2018-11-12T00:00:58.698Z,13.77
2018-11-12T00:03:28.675Z,23.10
2018-11-12T00:05:58.719Z,18.07
2018-11-12T00:08:28.649Z,19.07
2018-11-12T00:10:58.628Z,24.63
2018-11-12T00:13:28.528Z,21.13
2018-11-12T00:15:58.479Z,17.23
2018-11-12T00:18:29.435Z,22.80
2018-11-12T00:20:59.436Z,22.97
2018-11-12T00:23:29.366Z,20.53
2018-11-12T00:25:59.179Z,17.77
2018-11-12T00:28:29.038Z,18.20
2018-11-12T00:30:58.960Z,20.37
2018-11-12T00:33:28.926Z,33.00
2018-11-12T00:35:58.892Z,22.07
2018-11-12T00:38:28.978Z,13.13
2018-11-12T00:40:58.939Z,22.43
2018-11-12T00:43:28.944Z,26.40
2018-11-12T00:45:58.893Z,27.33
2018-11-12T00:48:28.929Z,24.20
2018-11-12T00:50:58.888Z,19.77
2018-11-12T00:53:28.843Z,18.17
2018-11-12T00:55:58.839Z,19.13
2018-11-12T00:58:28.881Z,27.60
2018-11-12T01:00:58.755Z,17.17
2018-11-12T01:03:28.667Z,20.83
2018-11-12T01:05:58.539Z,23.93
2018-11-12T01:08:28.503Z,25.20
2018-11-12T01:10:58.312Z,26.17
2018-11-12T01:13:28.223Z,25.27
2018-11-12T01:15:58.230Z,27.33
2018-11-12T01:18:28.317Z,23.13
2018-11-12T01:20:58.284Z,28.23
2018-11-12T01:23:28.230Z,24.57
2018-11-12T01:25:58.546Z,32.50
2018-11-12T01:28:28.545Z,27.63
2018-11-12T01:31:04.250Z,26.70
2018-11-12T01:33:35.835Z,25.63
2018-11-12T01:36:06.067Z,32.77
2018-11-12T01:38:36.000Z,17.67
2018-11-12T01:41:05.945Z,22.83
2018-11-12T01:43:35.912Z,21.13
2018-11-12T01:46:05.763Z,17.27
2018-11-12T01:48:35.687Z,27.17
2018-11-12T01:51:05.590Z,14.33
2018-11-12T01:53:35.487Z,22.07
2018-11-12T01:56:06.308Z,25.70
2018-11-12T01:58:36.338Z,16.30
2018-11-12T02:01:06.340Z,15.83
2018-11-12T02:03:36.268Z,17.93
2018-11-12T02:06:06.275Z,17.13
2018-11-12T02:08:36.370Z,20.00
2018-11-12T02:11:06.223Z,15.93
2018-11-12T02:13:36.160Z,19.03
2018-11-12T02:16:07.815Z,22.33
2018-11-12T02:18:38.088Z,16.20
2018-11-12T02:21:08.823Z,18.07
2018-11-12T02:23:38.747Z,14.70
2018-11-12T02:26:08.704Z,22.33
2018-11-12T02:28:38.736Z,20.20
2018-11-12T02:31:08.695Z,17.40
2018-11-12T02:33:39.020Z,20.27
2018-11-12T02:36:08.831Z,21.03
2018-11-12T02:38:38.754Z,20.13
2018-11-12T02:41:08.808Z,19.20
2018-11-12T02:43:38.811Z,17.47
2018-11-12T02:46:08.739Z,16.37
2018-11-12T02:48:38.874Z,19.60
2018-11-12T02:51:08.876Z,18.33
2018-11-12T02:53:38.848Z,15.40
2018-11-12T02:56:08.775Z,18.97
2018-11-12T02:58:38.828Z,20.47
2018-11-12T03:01:08.756Z,21.13
2018-11-12T03:03:38.596Z,16.13
2018-11-12T03:06:08.427Z,13.37
2018-11-12T03:08:38.347Z,16.47
2018-11-12T03:11:08.159Z,16.47
2018-11-12T03:13:38.081Z,17.20
2018-11-12T03:16:08.145Z,18.03
2018-11-12T03:18:38.103Z,15.00
2018-11-12T03:21:08.123Z,21.07
2018-11-12T03:23:38.141Z,12.77
2018-11-12T03:26:08.060Z,22.07
2018-11-12T03:28:38.011Z,19.30
2018-11-12T03:31:07.907Z,26.57
2018-11-12T03:33:37.903Z,25.83
2018-11-12T03:36:07.820Z,26.73
2018-11-12T03:38:37.732Z,27.37
2018-11-12T03:41:07.650Z,16.70
2018-11-12T03:43:37.573Z,22.13
2018-11-12T03:46:07.519Z,22.10
2018-11-12T03:48:37.449Z,21.93
2018-11-12T03:51:07.412Z,24.53
2018-11-12T03:53:37.226Z,28.90
2018-11-12T03:56:07.848Z,18.87
2018-11-12T03:58:37.709Z,22.47
2018-11-12T04:01:07.722Z,15.77
2018-11-12T04:03:37.706Z,25.67
2018-11-12T04:06:07.623Z,19.37
2018-11-12T04:08:37.487Z,17.53
2018-11-12T04:11:07.487Z,20.17
2018-11-12T04:13:37.372Z,18.50
2018-11-12T04:16:07.391Z,23.93
2018-11-12T04:18:37.479Z,20.10
2018-11-12T04:21:07.772Z,21.60
2018-11-12T04:23:37.743Z,22.37
2018-11-12T04:26:07.760Z,27.40
2018-11-12T04:28:37.575Z,22.27
2018-11-12T04:31:07.593Z,21.30
2018-11-12T04:33:37.656Z,20.50
2018-11-12T04:36:07.740Z,19.43
2018-11-12T04:38:37.739Z,15.73
2018-11-12T04:41:07.571Z,13.70
2018-11-12T04:43:37.581Z,22.33
2018-11-12T04:46:07.896Z,21.43
2018-11-12T04:48:37.814Z,18.17
2018-11-12T04:51:07.991Z,17.30
2018-11-12T04:53:38.031Z,23.27
2018-11-12T04:56:07.904Z,21.30
2018-11-12T04:58:37.882Z,20.63
2018-11-12T05:01:07.794Z,18.90
2018-11-12T05:03:37.710Z,22.67
2018-11-12T05:06:07.827Z,23.50
2018-11-12T05:08:37.756Z,16.07
2018-11-12T05:11:07.667Z,21.40
2018-11-12T05:13:37.715Z,19.50
2018-11-12T05:16:07.836Z,20.77
2018-11-12T05:18:37.816Z,17.53
2018-11-12T05:21:07.934Z,19.63
2018-11-12T05:23:37.791Z,17.93
2018-11-12T05:26:07.804Z,18.00
2018-11-12T05:28:37.683Z,17.10
2018-11-12T05:31:07.591Z,14.63
2018-11-12T05:33:37.511Z,20.03
2018-11-12T05:36:08.032Z,16.93
2018-11-12T05:38:37.874Z,22.10
2018-11-12T05:41:07.875Z,19.27
2018-11-12T05:43:37.839Z,23.30
2018-11-12T05:46:07.809Z,20.67
2018-11-12T05:48:38.079Z,18.97
2018-11-12T05:51:07.992Z,16.00
2018-11-12T05:53:38.006Z,17.00
2018-11-12T05:56:07.926Z,17.03
2018-11-12T05:58:37.938Z,19.63
2018-11-12T06:01:07.807Z,21.37
2018-11-12T06:03:37.715Z,17.47
2018-11-12T06:06:07.526Z,23.43
2018-11-12T06:08:37.442Z,13.73
2018-11-12T06:11:07.675Z,14.50
2018-11-12T06:13:37.587Z,20.57
2018-11-12T06:16:08.016Z,16.83
2018-11-12T06:18:38.032Z,20.27
2018-11-12T06:21:07.984Z,14.77
2018-11-12T06:23:37.959Z,21.00
2018-11-12T06:26:07.894Z,18.57
2018-11-12T06:28:37.884Z,17.80
2018-11-12T06:31:07.825Z,19.30
2018-11-12T06:33:37.758Z,19.83
2018-11-12T06:36:07.752Z,17.63
2018-11-12T06:38:38.031Z,16.70
2018-11-12T06:41:07.983Z,11.70
2018-11-12T06:43:37.996Z,13.50
2018-11-12T06:46:08.886Z,19.20
2018-11-12T06:48:38.851Z,12.30
2018-11-12T06:51:08.806Z,13.20
2018-11-12T06:53:39.042Z,18.40
2018-11-12T06:56:09.157Z,17.70
2018-11-12T06:58:39.023Z,16.17
2018-11-12T07:01:08.940Z,16.97
2018-11-12T07:03:38.890Z,16.67
2018-11-12T07:06:08.868Z,18.70
2018-11-12T07:08:38.792Z,18.33
2018-11-12T07:11:08.815Z,14.20
2018-11-12T07:13:38.818Z,14.60
2018-11-12T07:16:08.774Z,15.73
2018-11-12T07:18:38.669Z,12.97
2018-11-12T07:21:08.668Z,13.83
2018-11-12T07:23:38.583Z,18.27
2018-11-12T07:26:08.496Z,16.33
2018-11-12T07:28:38.450Z,16.57
2018-11-12T07:31:08.356Z,16.27
2018-11-12T07:33:38.601Z,15.07
2018-11-12T07:36:08.463Z,16.17
2018-11-12T07:38:38.387Z,14.97
2018-11-12T07:41:08.396Z,20.87
2018-11-12T07:43:38.219Z,14.67
2018-11-12T07:46:08.228Z,12.60
2018-11-12T07:48:38.075Z,21.43
2018-11-12T07:51:08.111Z,14.53
2018-11-12T07:53:38.122Z,18.93
2018-11-12T07:56:08.089Z,20.87
2018-11-12T07:58:38.031Z,15.27
2018-11-12T08:01:08.232Z,18.73
2018-11-12T08:03:38.430Z,20.90
2018-11-12T08:06:08.374Z,13.03
2018-11-12T08:08:38.284Z,19.43
2018-11-12T08:11:08.206Z,15.63
2018-11-12T08:13:38.255Z,13.37
2018-11-12T08:16:08.237Z,20.87
2018-11-12T08:18:38.243Z,13.47
2018-11-12T08:21:08.063Z,15.33
2018-11-12T08:23:37.975Z,20.30
2018-11-12T08:26:07.840Z,13.30
2018-11-12T08:28:37.807Z,16.97
2018-11-12T08:31:07.765Z,12.83
2018-11-12T08:33:37.739Z,13.40
2018-11-12T08:36:07.759Z,8.60
2018-11-12T08:38:37.567Z,12.47
2018-11-12T08:41:07.558Z,13.30
2018-11-12T08:43:37.498Z,12.50
2018-11-12T08:46:07.367Z,12.53
2018-11-12T08:48:37.275Z,13.20
2018-11-12T08:51:07.248Z,13.67
2018-11-12T08:53:37.113Z,15.80
2018-11-12T08:56:07.175Z,15.03
2018-11-12T08:58:37.132Z,14.60
2018-11-12T09:01:07.216Z,12.20
2018-11-12T09:03:37.226Z,13.17
2018-11-12T09:06:07.351Z,8.63
2018-11-12T09:08:37.280Z,10.70
2018-11-12T09:11:07.540Z,8.87
2018-11-12T09:13:37.518Z,10.60
2018-11-12T09:16:07.424Z,8.67
2018-11-12T09:18:37.433Z,6.47
2018-11-12T09:21:07.358Z,5.03
2018-11-12T09:23:37.367Z,9.43
2018-11-12T09:26:07.492Z,9.40
2018-11-12T09:28:37.747Z,9.67
2018-11-12T09:31:08.258Z,6.20
2018-11-12T09:33:37.535Z,8.60
2018-11-12T09:36:07.355Z,5.90
2018-11-12T09:38:37.363Z,5.35
2018-11-12T09:41:07.323Z,7.25
2018-11-12T09:43:37.299Z,6.15
2018-11-12T09:46:07.479Z,7.42
2018-11-12T09:48:37.358Z,6.35
2018-11-12T09:51:07.351Z,5.00
2018-11-12T09:53:37.231Z,8.30
2018-11-12T09:56:07.402Z,7.85
2018-11-12T09:58:37.367Z,9.08
2018-11-12T10:01:07.595Z,8.43
2018-11-12T10:03:38.665Z,6.05
2018-11-12T10:06:09.377Z,8.60
2018-11-12T10:08:39.521Z,7.17
2018-11-12T10:11:11.319Z,5.83
2018-11-12T10:13:41.505Z,7.33
2018-11-12T10:16:12.761Z,7.67
2018-11-12T10:18:39.398Z,11.57
2018-11-12T10:21:09.300Z,8.00
2018-11-12T10:23:39.215Z,9.70
2018-11-12T10:26:09.032Z,10.13
2018-11-12T10:28:39.050Z,6.22
2018-11-12T10:31:08.999Z,6.87
2018-11-12T10:33:38.932Z,7.35
2018-11-12T10:36:08.895Z,6.58
2018-11-12T10:38:38.748Z,7.53
2018-11-12T10:41:08.785Z,8.48
2018-11-12T10:43:38.782Z,7.80
2018-11-12T10:46:08.666Z,7.15
2018-11-12T10:48:38.915Z,9.90
2018-11-12T10:51:08.827Z,7.80
2018-11-12T10:53:38.827Z,11.90
2018-11-12T10:56:08.842Z,12.00
2018-11-12T10:58:38.893Z,10.60
2018-11-12T11:01:13.623Z,19.40
2018-11-12T11:03:50.613Z,9.70
2018-11-12T11:06:20.573Z,7.40
2018-11-12T11:08:50.381Z,8.40
2018-11-12T11:11:20.505Z,6.97
2018-11-12T11:13:50.362Z,8.38
2018-11-12T11:16:20.330Z,7.08
2018-11-12T11:18:50.248Z,9.10
2018-11-12T11:21:20.126Z,9.55
2018-11-12T11:23:50.119Z,7.00
2018-11-12T11:26:20.049Z,11.25
2018-11-12T11:28:50.111Z,8.48
2018-11-12T11:31:19.923Z,13.28
2018-11-12T11:33:49.834Z,9.93
2018-11-12T11:36:19.651Z,8.18
2018-11-12T11:38:49.568Z,6.27
2018-11-12T11:41:19.437Z,8.47
2018-11-12T11:43:49.730Z,8.55
2018-11-12T11:46:20.028Z,11.08
2018-11-12T11:48:50.411Z,9.23
2018-11-12T11:51:20.423Z,10.35
2018-11-12T11:53:50.383Z,8.48
2018-11-12T11:56:20.415Z,8.28
2018-11-12T11:58:50.422Z,6.92
2018-11-12T12:01:20.331Z,7.80
2018-11-12T12:03:53.524Z,6.33
2018-11-12T12:06:23.455Z,7.45
2018-11-12T12:08:53.522Z,10.93
2018-11-12T12:11:23.418Z,10.45
2018-11-12T12:13:53.387Z,8.38
2018-11-12T12:16:23.414Z,10.43
2018-11-12T12:18:53.228Z,9.00
2018-11-12T12:21:23.134Z,7.20
2018-11-12T12:23:53.359Z,10.25
2018-11-12T12:26:23.274Z,8.60
2018-11-12T12:28:53.308Z,9.48
2018-11-12T12:31:23.328Z,8.30
2018-11-12T12:33:53.232Z,9.68
2018-11-12T12:36:24.409Z,9.53
2018-11-12T12:38:54.239Z,11.25
2018-11-12T12:41:24.203Z,7.28
2018-11-12T12:43:54.010Z,9.35
2018-11-12T12:46:24.154Z,10.30
2018-11-12T12:48:54.088Z,9.20
2018-11-12T12:51:24.114Z,9.90
2018-11-12T12:53:54.087Z,8.48
2018-11-12T12:56:24.083Z,9.00
2018-11-12T12:58:53.952Z,10.38
2018-11-12T13:01:23.837Z,9.95
2018-11-12T13:03:53.848Z,10.13
2018-11-12T13:06:23.834Z,7.12
2018-11-12T13:08:53.784Z,11.43
2018-11-12T13:11:23.835Z,10.35
2018-11-12T13:13:53.743Z,8.75
2018-11-12T13:16:23.726Z,6.90
2018-11-12T13:18:53.551Z,7.10
2018-11-12T13:21:23.564Z,8.08
2018-11-12T13:23:53.512Z,12.18
2018-11-12T13:26:23.493Z,6.65
2018-11-12T13:28:53.442Z,6.65
2018-11-12T13:31:23.335Z,6.12
2018-11-12T13:33:53.331Z,7.22
2018-11-12T13:36:23.151Z,7.42
2018-11-12T13:38:53.067Z,8.03
2018-11-12T13:41:22.876Z,8.70
2018-11-12T13:43:52.789Z,6.08
2018-11-12T13:46:26.181Z,5.45
2018-11-12T13:48:56.000Z,6.25
2018-11-12T13:51:25.916Z,4.58
2018-11-12T13:53:56.341Z,7.92
2018-11-12T13:56:26.484Z,6.83
2018-11-12T13:58:56.520Z,12.80
2018-11-12T14:01:26.508Z,6.85
2018-11-12T14:03:56.450Z,7.47
2018-11-12T14:06:26.433Z,7.33
2018-11-12T14:08:56.747Z,5.43
2018-11-12T14:11:27.016Z,4.40
2018-11-12T14:13:57.358Z,7.37
2018-11-12T14:16:27.314Z,3.08
2018-11-12T14:18:57.271Z,5.30
2018-11-12T14:21:27.291Z,4.62
2018-11-12T14:23:57.168Z,4.72
2018-11-12T14:26:27.338Z,5.00
2018-11-12T14:28:57.473Z,6.47
2018-11-12T14:31:27.724Z,6.00
2018-11-12T14:33:57.601Z,8.85
2018-11-12T14:36:27.656Z,7.67
2018-11-12T14:38:58.556Z,5.40
2018-11-12T14:41:28.515Z,3.63
2018-11-12T14:43:58.328Z,7.05
2018-11-12T14:46:28.248Z,4.92
2018-11-12T14:48:58.201Z,4.65
2018-11-12T14:51:28.100Z,8.20
2018-11-12T14:53:58.132Z,3.15
2018-11-12T14:56:28.164Z,4.28
2018-11-12T14:58:58.125Z,6.63
2018-11-12T15:01:28.081Z,6.05
2018-11-12T15:03:58.056Z,5.30
2018-11-12T15:06:28.115Z,6.20
2018-11-12T15:08:58.115Z,4.85
2018-11-12T15:11:28.112Z,4.53
2018-11-12T15:13:58.063Z,8.78
2018-11-12T15:16:28.040Z,7.10
2018-11-12T15:18:57.956Z,5.80
2018-11-12T15:21:27.774Z,5.13
2018-11-12T15:23:57.678Z,4.43
2018-11-12T15:26:27.895Z,5.17
2018-11-12T15:28:58.016Z,6.77
2018-11-12T15:31:28.143Z,7.07
2018-11-12T15:33:58.101Z,6.73
2018-11-12T15:36:28.078Z,8.90
2018-11-12T15:38:57.931Z,5.03
2018-11-12T15:41:27.808Z,5.07
2018-11-12T15:43:57.879Z,6.67
2018-11-12T15:46:27.879Z,6.03
2018-11-12T15:48:57.828Z,7.40
2018-11-12T15:51:27.790Z,8.10
2018-11-12T15:53:57.689Z,5.63
2018-11-12T15:56:27.707Z,7.30
2018-11-12T15:58:57.675Z,6.37
2018-11-12T16:01:28.035Z,7.60
2018-11-12T16:03:57.962Z,8.97
2018-11-12T16:06:28.152Z,8.27
2018-11-12T16:08:58.055Z,9.87
2018-11-12T16:11:28.015Z,9.03
2018-11-12T16:13:57.827Z,8.60
2018-11-12T16:16:27.739Z,7.57
2018-11-12T16:18:57.561Z,7.53
2018-11-12T16:21:27.471Z,7.43
2018-11-12T16:23:57.423Z,6.80
2018-11-12T16:26:27.477Z,6.53
2018-11-12T16:28:57.421Z,8.27
2018-11-12T16:31:27.272Z,9.80
2018-11-12T16:33:57.243Z,6.53
2018-11-12T16:36:27.364Z,11.47
2018-11-12T16:38:57.284Z,8.50
2018-11-12T16:41:27.204Z,10.63
2018-11-12T16:43:57.154Z,8.10
2018-11-12T16:46:27.132Z,8.80
2018-11-12T16:48:57.043Z,5.80
2018-11-12T16:51:26.861Z,5.10
2018-11-12T16:53:56.772Z,9.07
2018-11-12T16:56:26.823Z,9.17
2018-11-12T16:58:56.803Z,8.00
2018-11-12T17:01:27.083Z,5.77
2018-11-12T17:03:57.055Z,10.17
2018-11-12T17:06:27.067Z,8.17
2018-11-12T17:08:56.982Z,9.53
2018-11-12T17:11:26.791Z,8.80
2018-11-12T17:13:56.708Z,9.27
2018-11-12T17:16:26.764Z,7.90
2018-11-12T17:18:56.748Z,10.20
2018-11-12T17:21:26.660Z,6.70
2018-11-12T17:23:56.468Z,13.40
2018-11-12T17:26:26.496Z,12.70
2018-11-12T17:28:56.542Z,7.17
2018-11-12T17:31:26.420Z,10.53
2018-11-12T17:33:56.375Z,11.03
2018-11-12T17:36:27.512Z,7.03
2018-11-12T17:38:57.331Z,7.70
2018-11-12T17:41:27.315Z,13.97
2018-11-12T17:43:57.180Z,11.80
2018-11-12T17:46:27.038Z,11.93
2018-11-12T17:48:56.960Z,15.27
2018-11-12T17:51:26.862Z,14.13
2018-11-12T17:53:56.778Z,15.13
2018-11-12T17:56:26.839Z,12.40
2018-11-12T17:58:56.722Z,15.03
2018-11-12T18:01:26.793Z,11.63
2018-11-12T18:03:56.684Z,12.93
2018-11-12T18:06:26.816Z,10.07
2018-11-12T18:08:56.837Z,9.13
2018-11-12T18:11:26.735Z,13.57
2018-11-12T18:13:56.715Z,11.13
2018-11-12T18:16:26.636Z,10.30
2018-11-12T18:18:56.548Z,12.97
2018-11-12T18:21:26.503Z,17.33
2018-11-12T18:23:56.383Z,13.03
2018-11-12T18:26:26.399Z,19.33
2018-11-12T18:28:56.447Z,11.60
2018-11-12T18:31:26.409Z,11.53
2018-11-12T18:33:57.815Z,10.53
2018-11-12T18:36:27.958Z,8.00
2018-11-12T18:38:57.915Z,10.20
2018-11-12T18:41:27.867Z,13.53
2018-11-12T18:43:57.800Z,15.53
2018-11-12T18:46:27.675Z,12.33
2018-11-12T18:48:57.580Z,10.70
2018-11-12T18:51:27.587Z,14.20
2018-11-12T18:53:57.544Z,17.13
2018-11-12T18:56:27.519Z,14.40
2018-11-12T18:58:57.435Z,7.83
2018-11-12T19:01:27.292Z,14.90
2018-11-12T19:03:57.175Z,13.37
2018-11-12T19:06:27.564Z,14.20
2018-11-12T19:08:57.458Z,21.70
2018-11-12T19:11:27.429Z,18.33
2018-11-12T19:13:57.479Z,15.67
2018-11-12T19:16:27.307Z,19.53
2018-11-12T19:18:57.310Z,22.50
2018-11-12T19:21:27.183Z,32.97
2018-11-12T19:23:57.139Z,21.30
2018-11-12T19:26:27.016Z,22.83
2018-11-12T19:28:56.779Z,15.47
2018-11-12T19:31:26.738Z,16.33
2018-11-12T19:33:56.696Z,11.30
2018-11-12T19:36:26.529Z,16.07
2018-11-12T19:38:56.504Z,17.23
2018-11-12T19:41:26.773Z,15.90
2018-11-12T19:43:57.041Z,14.93
2018-11-12T19:46:27.055Z,13.73
2018-11-12T19:48:56.814Z,16.27
2018-11-12T19:51:26.810Z,18.37
2018-11-12T19:53:56.633Z,12.73
2018-11-12T19:56:26.616Z,15.63
2018-11-12T19:58:56.696Z,14.60
2018-11-12T20:01:26.582Z,18.00
2018-11-12T20:03:56.511Z,21.20
2018-11-12T20:06:26.395Z,14.63
2018-11-12T20:08:56.532Z,13.37
2018-11-12T20:11:26.444Z,17.80
2018-11-12T20:13:56.440Z,25.53
2018-11-12T20:16:26.843Z,16.93
2018-11-12T20:18:56.667Z,19.17
2018-11-12T20:21:26.619Z,12.63
2018-11-12T20:23:56.501Z,16.07
2018-11-12T20:26:26.668Z,19.60
2018-11-12T20:28:58.426Z,12.20
2018-11-12T20:31:28.363Z,13.03
2018-11-12T20:33:58.365Z,11.60
2018-11-12T20:36:28.268Z,17.20
2018-11-12T20:38:58.433Z,15.50
2018-11-12T20:41:28.321Z,17.93
2018-11-12T20:43:58.181Z,16.90
2018-11-12T20:46:28.127Z,10.50
2018-11-12T20:48:58.019Z,22.70
2018-11-12T20:51:28.216Z,13.53
2018-11-12T20:53:58.295Z,20.90
2018-11-12T20:56:28.158Z,17.20
2018-11-12T20:58:58.210Z,21.23
2018-11-12T21:01:28.091Z,12.43
2018-11-12T21:03:58.106Z,16.10
2018-11-12T21:06:28.176Z,21.50
2018-11-12T21:08:58.108Z,18.00
2018-11-12T21:11:28.312Z,15.73
2018-11-12T21:13:58.231Z,14.40
2018-11-12T21:16:28.228Z,16.57
2018-11-12T21:18:58.044Z,13.03
2018-11-12T21:21:27.974Z,16.27
2018-11-12T21:23:57.976Z,12.67
2018-11-12T21:26:28.984Z,14.50
2018-11-12T21:28:59.181Z,16.37
2018-11-12T21:31:29.275Z,12.67
2018-11-12T21:33:59.327Z,17.67
2018-11-12T21:36:29.391Z,17.33
2018-11-12T21:38:59.332Z,9.50
2018-11-12T21:41:29.493Z,20.97
2018-11-12T21:43:59.246Z,16.50
2018-11-12T21:46:29.214Z,18.77
2018-11-12T21:48:59.029Z,24.27
2018-11-12T21:51:28.948Z,20.70
2018-11-12T21:53:58.898Z,16.90
2018-11-12T21:56:28.797Z,16.73
2018-11-12T21:58:58.834Z,15.30
2018-11-12T22:01:28.766Z,18.33
2018-11-12T22:03:58.764Z,12.70
2018-11-12T22:06:28.330Z,15.53
2018-11-12T22:08:57.900Z,16.13
2018-11-12T22:11:27.951Z,13.53
2018-11-12T22:13:57.502Z,22.00
2018-11-12T22:16:27.588Z,15.40
2018-11-12T22:18:57.674Z,10.43
2018-11-12T22:21:27.611Z,14.43
2018-11-12T22:23:57.522Z,19.50
2018-11-12T22:26:27.592Z,18.63
2018-11-12T22:28:57.472Z,19.43
2018-11-12T22:31:27.421Z,20.30
2018-11-12T22:33:57.349Z,14.97
2018-11-12T22:36:27.320Z,13.80
2018-11-12T22:38:57.239Z,18.80
2018-11-12T22:41:27.446Z,16.57
2018-11-12T22:43:57.405Z,15.30
2018-11-12T22:46:27.334Z,17.93
2018-11-12T22:48:57.390Z,14.37
2018-11-12T22:51:27.211Z,23.33
2018-11-12T22:53:57.190Z,17.90
2018-11-12T22:56:28.122Z,15.80
2018-11-12T22:58:58.079Z,9.93
2018-11-12T23:01:27.899Z,21.10
2018-11-12T23:03:57.807Z,18.27
2018-11-12T23:06:27.866Z,18.27
2018-11-12T23:08:57.755Z,18.00
2018-11-12T23:11:27.761Z,16.87
2018-11-12T23:13:57.582Z,15.63
2018-11-12T23:16:27.590Z,17.03
2018-11-12T23:18:57.457Z,16.73
2018-11-12T23:21:27.423Z,15.83
2018-11-12T23:23:57.336Z,12.70
2018-11-12T23:26:27.308Z,13.40
2018-11-12T23:28:57.258Z,19.23
2018-11-12T23:31:27.220Z,14.13
2018-11-12T23:33:57.295Z,22.37
2018-11-12T23:36:27.319Z,12.17
2018-11-12T23:38:57.171Z,14.67
2018-11-12T23:41:27.152Z,17.87
2018-11-12T23:43:57.163Z,13.17
2018-11-12T23:46:27.138Z,20.57
2018-11-12T23:48:57.094Z,11.70
2018-11-12T23:51:27.210Z,22.37
2018-11-12T23:53:57.136Z,18.87
2018-11-12T23:56:27.149Z,15.33
2018-11-12T23:58:56.964Z,11.07
